Time;durP1;ratioP1;P1;durP2;ratioP2;P2;SDS_P1;SDS_P2;PMS_P1;PMS_P2;Temp;Humidity;BMP_temperature;BMP_pressure;BME280_temperature;BME280_humidity;BME280_pressure;Samples;Min_cycle;Max_cycle;Signal;HPM_P1;HPM_P2
2023/03/11 00:01:37;;;;;;;10.73;2.15;;;;;;;-0.99;100.00;100728.91;6277028;22;20075;-78
2023/03/11 00:04:03;;;;;;;8.30;2.08;;;;;;;-1.16;100.00;100709.78;6277213;22;20011;-75
2023/03/11 00:06:28;;;;;;;8.80;1.75;;;;;;;-1.16;100.00;100721.63;6277396;22;20413;-78
2023/03/11 00:08:53;;;;;;;13.30;2.10;;;;;;;-1.11;100.00;100735.03;6276813;22;20086;-77
2023/03/11 00:11:21;;;;;;;8.27;1.95;;;;;;;-1.18;100.00;100734.31;6276965;22;20000;-77
2023/03/11 00:13:46;;;;;;;5.70;1.63;;;;;;;-1.23;100.00;100733.56;6277035;22;20031;-77
2023/03/11 00:16:11;;;;;;;7.13;1.60;;;;;;;-1.26;100.00;100740.38;6276745;22;20034;-79
2023/03/11 00:18:37;;;;;;;13.20;1.80;;;;;;;-1.28;100.00;100742.06;6277316;22;20388;-80
2023/03/11 00:21:02;;;;;;;9.80;2.42;;;;;;;-1.43;100.00;100727.13;6277395;22;20431;-74
2023/03/11 00:23:28;;;;;;;5.57;1.42;;;;;;;-1.38;100.00;100748.97;6277382;22;20000;-80
2023/03/11 00:25:53;;;;;;;9.27;2.15;;;;;;;-1.59;100.00;100719.75;6276869;22;20367;-79
2023/03/11 00:28:21;;;;;;;9.45;2.13;;;;;;;-1.54;100.00;100729.81;6276692;22;20007;-79
2023/03/11 00:30:46;;;;;;;12.43;2.28;;;;;;;-1.52;100.00;100761.84;6276488;22;20057;-81
2023/03/11 00:33:13;;;;;;;8.57;2.50;;;;;;;-1.70;100.00;100739.31;6276907;22;20007;-78
2023/03/11 00:35:39;;;;;;;9.82;2.08;;;;;;;-1.87;100.00;100708.34;6276725;22;20010;-78
2023/03/11 00:38:07;;;;;;;9.27;2.60;;;;;;;-1.72;100.00;100748.63;6276766;22;20053;-76
2023/03/11 00:40:35;;;;;;;7.30;2.38;;;;;;;-1.68;100.00;100774.75;6277046;22;20478;-76
2023/03/11 00:43:00;;;;;;;11.43;2.60;;;;;;;-1.75;100.00;100772.31;6277045;22;20000;-79
2023/03/11 00:45:27;;;;;;;8.65;2.05;;;;;;;-2.09;100.00;100728.03;6276776;22;20003;-80
2023/03/11 00:47:53;;;;;;;11.18;2.53;;;;;;;-1.80;100.00;100781.66;6276464;22;20087;-76
2023/03/11 00:50:23;;;;;;;9.60;2.83;;;;;;;-1.87;100.00;100767.41;6281567;22;20031;-79
2023/03/11 00:52:49;;;;;;;9.82;2.38;;;;;;;-1.92;100.00;100764.09;6307483;22;20004;-76
2023/03/11 00:55:17;;;;;;;9.55;2.40;;;;;;;-1.82;100.00;100785.06;6307163;22;20026;-78
2023/03/11 00:57:43;;;;;;;7.18;2.55;;;;;;;-1.91;100.00;100768.28;6307388;22;20056;-76
2023/03/11 01:00:13;;;;;;;7.95;2.20;;;;;;;-1.87;100.00;100781.72;6307600;22;20426;-76
2023/03/11 01:02:38;;;;;;;8.55;2.00;;;;;;;-1.82;100.00;100788.44;6307252;22;20000;-79
2023/03/11 01:05:04;;;;;;;8.65;2.20;;;;;;;-1.84;100.00;100791.84;6307554;22;20004;-75
2023/03/11 01:07:30;;;;;;;7.55;1.70;;;;;;;-1.99;100.00;100766.72;6307210;22;20007;-76
2023/03/11 01:09:56;;;;;;;9.50;1.92;;;;;;;-2.77;100.00;100641.22;6280233;22;20031;-81
2023/03/11 01:12:21;;;;;;;9.20;2.15;;;;;;;-2.86;100.00;100649.72;6248558;22;20425;-76
2023/03/11 01:14:46;;;;;;;10.95;2.65;;;;;;;-2.26;100.00;100745.97;6276669;22;20447;-80
2023/03/11 01:17:12;;;;;;;9.30;2.40;;;;;;;-1.91;100.00;100808.78;6276034;22;20384;-81
2023/03/11 01:19:37;;;;;;;8.35;2.38;;;;;;;-2.05;100.00;100793.78;6276393;22;20004;-76
2023/03/11 01:22:02;;;;;;;10.60;2.53;;;;;;;-1.92;100.00;100824.81;6276427;22;20007;-80
2023/03/11 01:24:28;;;;;;;7.32;2.08;;;;;;;-1.94;100.00;100820.66;6276281;22;20007;-77
2023/03/11 01:26:53;;;;;;;8.45;2.25;;;;;;;-1.95;100.00;100821.50;6276072;22;20439;-77
2023/03/11 01:29:18;;;;;;;6.65;2.05;;;;;;;-1.97;100.00;100813.91;6276212;22;20000;-81
2023/03/11 01:31:44;;;;;;;8.05;2.10;;;;;;;-1.95;100.00;100822.34;6276323;22;20008;-77
2023/03/11 01:34:09;;;;;;;7.32;2.20;;;;;;;-1.87;100.00;100825.63;6276293;22;20003;-80
2023/03/11 01:36:34;;;;;;;9.27;2.92;;;;;;;-1.87;100.00;100817.16;6276380;22;20026;-78
2023/03/11 01:38:59;;;;;;;8.52;2.30;;;;;;;-1.88;100.00;100826.44;6276406;22;20030;-80
2023/03/11 01:41:27;;;;;;;10.35;2.67;;;;;;;-2.00;100.00;100800.47;6276121;22;20443;-77
2023/03/11 01:43:53;;;;;;;10.45;2.40;;;;;;;-1.93;100.00;100819.78;6275804;22;20011;-79
2023/03/11 01:46:29;;;;;;;8.07;2.22;;;;;;;-2.18;100.00;100782.09;6276265;22;20324;-79
2023/03/11 01:49:00;;;;;;;6.05;1.88;;;;;;;-1.98;100.00;100819.81;6275839;22;20011;-77
2023/03/11 01:51:43;;;;;;;7.90;2.45;;;;;;;-2.06;100.00;100819.94;6275838;22;20000;-79
2023/03/11 01:54:22;;;;;;;5.50;1.77;;;;;;;-2.07;100.00;100828.34;6276066;22;20007;-80
2023/03/11 01:56:49;;;;;;;9.68;2.42;;;;;;;-2.09;100.00;100827.53;6276287;22;20003;-77
2023/03/11 01:59:18;;;;;;;8.73;2.25;;;;;;;-2.12;100.00;100830.13;6276299;22;20443;-78
2023/03/11 02:02:21;;;;;;;10.98;2.03;;;;;;;-2.16;100.00;100820.91;6275938;22;20008;-79
2023/03/11 02:04:48;;;;;;;10.82;2.20;;;;;;;-2.20;100.00;100829.34;6154177;23;20009;-79
2023/03/11 02:07:14;;;;;;;10.27;2.10;;;;;;;-2.23;100.00;100831.09;6154484;23;20081;-79
2023/03/11 02:09:40;;;;;;;10.18;2.97;;;;;;;-2.27;100.00;100826.91;6154277;23;20017;-78
2023/03/11 02:12:08;;;;;;;8.23;2.28;;;;;;;-2.32;100.00;100821.91;6154701;23;20016;-76
2023/03/11 02:14:34;;;;;;;5.78;2.30;;;;;;;-2.34;100.00;100826.16;6154661;23;20439;-77
2023/03/11 02:17:00;;;;;;;7.60;2.92;;;;;;;-2.48;100.00;100817.84;6154677;23;20088;-78
2023/03/11 02:20:00;;;;;;;10.95;2.55;;;;;;;-2.47;100.00;100829.63;6154405;23;20093;-78
2023/03/11 02:22:28;;;;;;;8.00;2.67;;;;;;;-2.46;100.00;100836.34;6066953;23;20018;-80
2023/03/11 02:25:10;;;;;;;9.20;2.95;;;;;;;-2.59;100.00;100823.00;6067087;23;20007;-75
2023/03/11 02:27:38;;;;;;;9.32;2.88;;;;;;;-2.56;100.00;100829.72;6066880;23;20078;-80
2023/03/11 02:30:05;;;;;;;9.50;3.50;;;;;;;-2.54;100.00;100833.09;6067105;23;20045;-80
2023/03/11 02:32:31;;;;;;;10.55;2.92;;;;;;;-2.56;100.00;100834.75;6067042;23;20010;-76
2023/03/11 02:34:56;;;;;;;8.75;3.03;;;;;;;-2.63;100.00;100826.41;6066883;23;20007;-80
2023/03/11 02:37:21;;;;;;;11.15;3.20;;;;;;;-2.70;100.00;100817.22;6066735;23;20015;-76
2023/03/11 02:39:50;;;;;;;10.52;2.90;;;;;;;-2.63;100.00;100832.31;6066766;23;20159;-77
2023/03/11 02:42:31;;;;;;;8.55;2.75;;;;;;;-2.64;100.00;100827.28;6137205;23;20535;-80
2023/03/11 02:45:08;;;;;;;9.68;3.10;;;;;;;-2.75;100.00;100814.75;6154305;23;20088;-80
2023/03/11 02:47:34;;;;;;;10.70;2.90;;;;;;;-2.66;100.00;100831.47;6154230;23;20065;-77
2023/03/11 02:50:00;;;;;;;10.32;2.80;;;;;;;-3.01;100.00;100778.72;6154456;23;20017;-80
2023/03/11 02:52:27;;;;;;;9.90;2.72;;;;;;;-2.79;100.00;100825.69;6154251;23;20474;-79
2023/03/11 02:54:52;;;;;;;10.73;2.83;;;;;;;-2.68;100.00;100835.72;6154707;23;20068;-79
2023/03/11 02:57:18;;;;;;;11.25;3.17;;;;;;;-2.69;100.00;100829.81;6154673;23;20013;-79
2023/03/11 02:59:43;;;;;;;7.93;2.95;;;;;;;-2.71;100.00;100831.53;6227246;22;20010;-79
2023/03/11 03:02:08;;;;;;;11.60;3.42;;;;;;;-2.69;100.00;100823.94;6277499;22;20004;-79
2023/03/11 03:04:34;;;;;;;6.65;2.83;;;;;;;-2.70;100.00;100827.31;6277165;22;20011;-79
2023/03/11 03:06:59;;;;;;;8.88;3.10;;;;;;;-2.74;100.00;100825.69;6249419;22;20356;-81
2023/03/11 03:09:24;;;;;;;8.43;3.10;;;;;;;-2.68;100.00;100836.56;6277382;22;20063;-80
2023/03/11 03:11:50;;;;;;;10.30;3.45;;;;;;;-2.82;100.00;100818.16;6277761;22;20007;-78
2023/03/11 03:14:15;;;;;;;10.55;3.10;;;;;;;-2.69;100.00;100834.03;6277495;22;20000;-79
2023/03/11 03:16:40;;;;;;;11.93;4.47;;;;;;;-2.67;100.00;100847.50;6277663;22;20082;-79
2023/03/11 03:19:05;;;;;;;13.57;5.60;;;;;;;-2.69;100.00;100849.22;6277610;22;20371;-77
2023/03/11 03:21:31;;;;;;;15.93;6.32;;;;;;;-2.66;100.00;100864.34;6249819;22;20011;-77
2023/03/11 03:23:56;;;;;;;14.35;5.55;;;;;;;-2.84;100.00;100834.19;6277226;22;20073;-78
2023/03/11 03:26:21;;;;;;;10.65;4.13;;;;;;;-2.67;100.00;100871.09;6277476;22;20026;-77
2023/03/11 03:28:47;;;;;;;13.23;3.58;;;;;;;-2.68;100.00;100882.06;6277298;22;20014;-80
2023/03/11 03:31:12;;;;;;;14.38;4.47;;;;;;;-2.79;100.00;100856.03;6277823;22;20008;-80
2023/03/11 03:33:38;;;;;;;11.68;3.53;;;;;;;-2.69;100.00;100885.44;6277324;22;20000;-77
2023/03/11 03:36:12;;;;;;;11.63;3.25;;;;;;;-2.72;100.00;100859.34;6277612;22;20061;-77
2023/03/11 03:38:37;;;;;;;13.40;3.13;;;;;;;-2.50;100.00;100886.13;6276999;22;20448;-78
2023/03/11 03:44:12;;;;;;;14.85;3.40;;;;;;;-2.33;100.00;100894.41;6246529;23;20087;-80
2023/03/11 03:46:38;;;;;;;9.77;3.05;;;;;;;-3.55;100.00;100684.88;6219543;23;20012;-77
2023/03/11 03:49:31;;;;;;;14.55;3.28;;;;;;;-2.32;100.00;100897.78;6246523;23;20004;-80
2023/03/11 03:52:00;;;;;;;8.82;3.08;;;;;;;-2.83;100.00;100816.47;6246568;23;20000;-79
2023/03/11 03:54:40;;;;;;;8.35;3.50;;;;;;;-3.39;100.00;100724.31;6246787;23;20568;-80
2023/03/11 03:57:16;;;;;;;9.77;2.50;;;;;;;-2.87;100.00;100817.34;6246896;23;20007;-80
2023/03/11 03:59:41;;;;;;;7.65;2.92;;;;;;;-2.81;100.00;100835.00;6246624;23;20426;-79
2023/03/11 04:02:15;;;;;;;9.60;3.10;;;;;;;-2.46;100.00;100907.16;6246702;23;20008;-79
2023/03/11 04:04:41;;;;;;;11.77;2.88;;;;;;;-2.49;100.00;100907.19;6246588;23;20015;-77
2023/03/11 04:07:15;;;;;;;8.43;2.38;;;;;;;-3.61;100.00;100740.47;6246374;23;20004;-76
2023/03/11 04:09:42;;;;;;;9.65;2.65;;;;;;;-3.26;100.00;100801.63;6246750;23;20011;-80
2023/03/11 04:12:13;;;;;;;7.88;2.70;;;;;;;-2.67;100.00;100913.22;6246756;23;20370;-78
2023/03/11 04:14:38;;;;;;;9.82;3.45;;;;;;;-2.71;100.00;100912.41;6246566;23;20083;-76
2023/03/11 04:17:03;;;;;;;12.27;3.15;;;;;;;-2.76;100.00;100908.22;6246770;23;20028;-76
2023/03/11 04:19:29;;;;;;;8.98;2.75;;;;;;;-2.78;100.00;100909.94;6245891;23;20007;-77
2023/03/11 04:21:54;;;;;;;8.07;2.70;;;;;;;-2.80;100.00;100916.69;6246329;23;20079;-77
2023/03/11 04:24:19;;;;;;;8.82;3.10;;;;;;;-2.83;100.00;100921.78;6246097;23;19996;-80
2023/03/11 04:26:45;;;;;;;10.57;3.08;;;;;;;-2.86;100.00;100917.56;6246148;23;20004;-78
2023/03/11 04:29:10;;;;;;;9.55;2.67;;;;;;;-3.05;100.00;100904.19;6245726;23;20050;-80
2023/03/11 04:31:35;;;;;;;9.43;2.70;;;;;;;-2.91;100.00;100927.72;6246544;23;20012;-76
2023/03/11 04:34:01;;;;;;;10.00;2.80;;;;;;;-3.14;100.00;100899.22;6246016;23;20008;-79
2023/03/11 04:36:26;;;;;;;12.80;3.03;;;;;;;-3.03;100.00;100915.16;6245945;23;20000;-79
2023/03/11 04:38:52;;;;;;;9.00;2.95;;;;;;;-3.14;100.00;100906.81;6246510;23;20015;-78
2023/03/11 04:41:17;;;;;;;7.93;2.40;;;;;;;-3.11;100.00;100913.53;6245659;23;20326;-79
2023/03/11 04:43:43;;;;;;;6.32;2.47;;;;;;;-3.03;100.00;100925.25;6246079;23;20058;-79
2023/03/11 04:46:08;;;;;;;9.07;3.05;;;;;;;-3.12;100.00;100910.16;6250639;23;20004;-79
2023/03/11 04:48:33;;;;;;;9.10;3.15;;;;;;;-2.88;100.00;100911.69;6247411;23;20014;-80
2023/03/11 04:50:59;;;;;;;11.95;3.15;;;;;;;-2.93;100.00;100894.03;6246249;23;20000;-80
2023/03/11 04:53:24;;;;;;;6.40;2.60;;;;;;;-2.85;100.00;100903.25;6246290;23;20437;-79
2023/03/11 04:55:51;;;;;;;9.93;2.75;;;;;;;-2.71;100.00;100921.69;6246344;23;20007;-79
2023/03/11 04:58:16;;;;;;;13.55;3.05;;;;;;;-2.76;100.00;100923.38;6246081;23;20050;-79
2023/03/11 05:00:41;;;;;;;7.80;2.72;;;;;;;-2.82;100.00;100919.25;6245799;23;20004;-79
2023/03/11 05:03:07;;;;;;;7.00;3.03;;;;;;;-2.79;100.00;100929.31;6246061;23;20007;-79
2023/03/11 05:05:32;;;;;;;8.05;2.97;;;;;;;-2.85;100.00;100923.44;6245709;23;20038;-80
2023/03/11 05:07:57;;;;;;;9.02;2.78;;;;;;;-2.85;100.00;100926.84;6245978;23;20038;-80
2023/03/11 05:10:23;;;;;;;7.50;3.00;;;;;;;-2.91;100.00;100930.25;6245574;23;20476;-80
2023/03/11 05:12:49;;;;;;;12.38;3.15;;;;;;;-2.92;100.00;100937.84;6245630;23;19996;-81
2023/03/11 05:15:15;;;;;;;8.35;2.80;;;;;;;-2.96;100.00;100936.16;6245880;23;20031;-78
2023/03/11 05:17:40;;;;;;;15.13;3.63;;;;;;;-2.99;100.00;100934.50;6245477;23;20441;-78
2023/03/11 05:20:06;;;;;;;9.02;3.30;;;;;;;-3.14;100.00;100921.97;6245490;23;20065;-77
2023/03/11 05:22:32;;;;;;;7.22;3.17;;;;;;;-3.04;100.00;100946.31;6219283;23;20079;-77
2023/03/11 05:24:58;;;;;;;9.60;3.25;;;;;;;-3.10;100.00;100943.81;6245835;23;20008;-80
2023/03/11 05:27:23;;;;;;;9.93;3.50;;;;;;;-3.11;100.00;100949.72;6218435;23;20012;-78
2023/03/11 05:29:48;;;;;;;6.05;3.00;;;;;;;-3.24;100.00;100930.44;6245769;23;20082;-78
2023/03/11 05:32:14;;;;;;;11.90;3.28;;;;;;;-3.15;100.00;100948.03;6245450;23;20079;-81
2023/03/11 05:34:40;;;;;;;11.90;3.33;;;;;;;-3.31;100.00;100934.66;6245964;23;20060;-78
2023/03/11 05:37:05;;;;;;;12.48;3.00;;;;;;;-3.30;100.00;100941.38;6245515;23;20012;-76
2023/03/11 05:39:30;;;;;;;10.23;3.42;;;;;;;-3.42;100.00;100923.78;6245301;23;20010;-77
2023/03/11 05:41:56;;;;;;;9.27;3.30;;;;;;;-3.33;100.00;100964.13;6245499;23;20008;-79
2023/03/11 05:44:22;;;;;;;8.43;3.40;;;;;;;-3.49;100.00;100948.19;6245682;23;20008;-80
2023/03/11 05:46:47;;;;;;;9.65;3.55;;;;;;;-3.42;100.00;100956.59;6245477;23;20004;-80
2023/03/11 05:49:12;;;;;;;9.88;3.53;;;;;;;-3.73;100.00;100904.56;6245479;23;20441;-78
2023/03/11 05:51:38;;;;;;;11.32;3.40;;;;;;;-3.39;100.00;100971.72;6245679;23;20333;-79
2023/03/11 05:54:03;;;;;;;6.82;3.00;;;;;;;-3.56;100.00;100950.75;6246043;23;20008;-79
2023/03/11 05:56:29;;;;;;;10.63;3.00;;;;;;;-3.48;100.00;100964.19;6246036;23;20368;-81
2023/03/11 05:58:57;;;;;;;11.20;3.20;;;;;;;-3.41;100.00;100981.00;6245680;23;20415;-80
2023/03/11 06:01:22;;;;;;;11.73;3.35;;;;;;;-3.41;100.00;100985.22;6245447;23;20008;-80
2023/03/11 06:03:47;;;;;;;9.82;3.20;;;;;;;-3.40;100.00;100985.19;6245470;23;20076;-80
2023/03/11 06:06:13;;;;;;;9.70;3.33;;;;;;;-3.40;100.00;100979.31;6245260;23;20008;-80
2023/03/11 06:08:38;;;;;;;11.02;3.30;;;;;;;-3.58;100.00;100965.88;6245383;23;20008;-78
2023/03/11 06:11:08;;;;;;;11.13;3.63;;;;;;;-3.43;100.00;100990.25;6245882;23;20001;-79
2023/03/11 06:13:34;;;;;;;9.40;3.83;;;;;;;-3.53;100.00;100983.56;6245534;23;20000;-77
2023/03/11 06:16:00;;;;;;;9.73;3.35;;;;;;;-3.43;100.00;100995.31;6245787;23;20304;-79
2023/03/11 06:18:25;;;;;;;13.30;3.38;;;;;;;-3.43;100.00;100994.47;6245476;23;20011;-80
2023/03/11 06:20:52;;;;;;;13.50;3.40;;;;;;;-3.63;100.00;100959.19;6245074;23;19996;-79
2023/03/11 06:23:17;;;;;;;9.27;3.42;;;;;;;-3.42;100.00;101001.19;6245421;23;20426;-79
2023/03/11 06:25:43;;;;;;;9.75;3.47;;;;;;;-3.45;100.00;100994.44;6245371;23;19996;-78
2023/03/11 06:28:08;;;;;;;10.85;4.25;;;;;;;-3.51;100.00;100992.81;6245449;23;20054;-78
2023/03/11 06:30:34;;;;;;;6.32;3.80;;;;;;;-3.38;100.00;101016.31;6245835;23;20011;-80
2023/03/11 06:32:59;;;;;;;10.30;3.60;;;;;;;-3.35;100.00;101016.31;6245144;23;20075;-80
2023/03/11 06:35:24;;;;;;;8.43;3.95;;;;;;;-3.38;100.00;101003.69;6245224;23;20500;-81
2023/03/11 06:37:50;;;;;;;9.25;3.80;;;;;;;-3.29;100.00;101016.28;6245079;23;20008;-81
2023/03/11 06:40:15;;;;;;;12.25;4.07;;;;;;;-3.23;100.00;101018.81;6245174;23;20058;-81
2023/03/11 06:42:41;;;;;;;9.00;3.85;;;;;;;-3.19;100.00;101023.00;6245175;23;20127;-80
2023/03/11 06:45:07;;;;;;;9.75;3.50;;;;;;;-3.18;100.00;101006.16;6245561;23;20322;-77
2023/03/11 06:47:32;;;;;;;8.95;3.67;;;;;;;-3.04;100.00;101032.22;6245307;23;20011;-79
2023/03/11 06:49:57;;;;;;;8.48;3.40;;;;;;;-2.97;100.00;101035.53;6245952;23;20008;-81
2023/03/11 06:52:23;;;;;;;11.25;4.03;;;;;;;-2.95;100.00;101042.28;6246962;23;20008;-78
2023/03/11 06:54:48;;;;;;;10.48;3.90;;;;;;;-3.04;100.00;101021.28;6246975;23;20047;-80
2023/03/11 06:57:14;;;;;;;10.15;4.03;;;;;;;-2.83;100.00;101054.03;6247255;23;20000;-79
2023/03/11 06:59:40;;;;;;;11.35;4.38;;;;;;;-2.78;100.00;101057.34;6247105;23;20000;-81
2023/03/11 07:02:06;;;;;;;8.18;4.05;;;;;;;-2.70;100.00;101063.22;6246909;23;20330;-81
2023/03/11 07:04:32;;;;;;;11.75;4.13;;;;;;;-2.64;100.00;101067.41;6246733;23;20000;-76
2023/03/11 07:06:58;;;;;;;11.05;4.20;;;;;;;-2.58;100.00;101069.06;6246543;23;20019;-77
2023/03/11 07:09:24;;;;;;;11.75;4.22;;;;;;;-2.50;100.00;101078.28;6246906;23;20325;-78
2023/03/11 07:11:51;;;;;;;10.98;4.85;;;;;;;-2.43;100.00;101077.41;6246740;23;20369;-77
2023/03/11 07:14:17;;;;;;;10.05;4.20;;;;;;;-2.37;100.00;101079.03;6246989;23;20011;-78
2023/03/11 07:16:42;;;;;;;13.70;4.40;;;;;;;-2.32;100.00;101073.13;6246397;23;20457;-77
2023/03/11 07:19:08;;;;;;;13.10;4.72;;;;;;;-2.25;100.00;101073.09;6246698;23;20000;-81
2023/03/11 07:21:33;;;;;;;11.90;4.60;;;;;;;-2.18;100.00;101079.78;6246984;23;20004;-78
2023/03/11 07:24:01;;;;;;;13.82;5.20;;;;;;;-2.20;100.00;101068.81;6246684;23;20069;-81
2023/03/11 07:26:28;;;;;;;10.90;4.70;;;;;;;-2.15;100.00;101065.44;6246992;23;20058;-79
2023/03/11 07:28:54;;;;;;;11.25;5.45;;;;;;;-2.03;100.00;101084.75;6246804;23;20361;-80
2023/03/11 07:31:25;;;;;;;15.00;5.90;;;;;;;-2.07;100.00;101068.72;6246499;23;20007;-80
2023/03/11 07:33:51;;;;;;;10.95;5.93;;;;;;;-1.89;100.00;101087.16;6246773;23;20008;-80
2023/03/11 07:36:22;;;;;;;11.52;5.15;;;;;;;-1.82;100.00;101082.03;6246542;23;20329;-80
2023/03/11 07:38:53;;;;;;;14.07;5.40;;;;;;;-1.82;100.00;101078.66;6246274;23;20422;-78
2023/03/11 07:41:18;;;;;;;13.50;5.10;;;;;;;-1.68;100.00;101096.25;6246975;23;20007;-79
2023/03/11 07:43:43;;;;;;;10.48;4.57;;;;;;;-1.65;100.00;101086.97;6246366;23;20251;-80
2023/03/11 07:46:12;;;;;;;11.82;5.13;;;;;;;-1.56;100.00;101099.56;6246615;23;20019;-77
2023/03/11 07:48:38;;;;;;;7.85;4.20;;;;;;;-1.53;100.00;101102.03;6246312;23;20096;-82
2023/03/11 07:51:10;;;;;;;8.40;4.00;;;;;;;-1.50;100.00;101096.94;6246606;23;20000;-81
2023/03/11 07:53:36;;;;;;;11.88;4.28;;;;;;;-1.48;100.00;101107.06;6246493;23;20004;-77
2023/03/11 07:56:03;;;;;;;8.48;3.70;;;;;;;-1.43;100.00;101112.94;6246648;23;20011;-78
2023/03/11 07:58:28;;;;;;;12.65;4.00;;;;;;;-1.54;100.00;101091.94;6246405;23;20003;-81
2023/03/11 08:00:55;;;;;;;11.80;4.10;;;;;;;-1.51;100.00;101092.75;6246112;23;20024;-81
2023/03/11 08:03:24;;;;;;;13.45;4.95;;;;;;;-1.26;100.00;101128.00;6246600;23;20004;-81
2023/03/11 08:05:50;;;;;;;12.25;5.00;;;;;;;-1.26;100.00;101120.38;6219534;23;20011;-81
2023/03/11 08:08:15;;;;;;;10.23;4.50;;;;;;;-1.21;100.00;101119.47;6246343;23;20413;-78
2023/03/11 08:10:41;;;;;;;13.73;4.93;;;;;;;-1.14;100.00;101127.03;6245031;23;20004;-79
2023/03/11 08:13:06;;;;;;;9.23;4.53;;;;;;;-1.18;100.00;101116.94;6246719;23;20061;-77
2023/03/11 08:15:31;;;;;;;11.77;4.30;;;;;;;-1.02;100.00;101135.31;6245104;23;20011;-81
2023/03/11 08:17:57;;;;;;;11.45;3.92;;;;;;;-0.96;100.00;101131.91;6245227;23;20016;-83
2023/03/11 08:20:22;;;;;;;11.93;5.28;;;;;;;-1.05;100.00;101104.97;6245847;23;20008;-76
2023/03/11 08:22:47;;;;;;;9.70;4.10;;;;;;;-0.83;100.00;101135.13;6218813;23;20004;-79
2023/03/11 08:25:13;;;;;;;8.93;3.58;;;;;;;-0.73;100.00;101134.16;6245917;23;20051;-79
2023/03/11 08:27:39;;;;;;;9.02;3.85;;;;;;;-0.76;100.00;101112.22;6245753;23;20079;-79
2023/03/11 08:30:05;;;;;;;6.25;3.25;;;;;;;-0.54;100.00;101127.19;6246180;23;20004;-78
2023/03/11 08:32:31;;;;;;;7.88;3.65;;;;;;;-0.53;100.00;101100.97;6246303;23;20428;-80
2023/03/11 08:34:57;;;;;;;10.05;3.97;;;;;;;-0.20;100.00;101130.09;6245916;23;20085;-81
2023/03/11 08:37:22;;;;;;;8.25;3.72;;;;;;;-0.25;100.00;101109.88;6246352;23;20014;-81
2023/03/11 08:39:48;;;;;;;9.15;3.47;;;;;;;-0.07;100.00;101129.94;6246222;23;20425;-77
2023/03/11 08:42:14;;;;;;;10.13;3.58;;;;;;;0.05;100.00;101143.31;6245844;23;20016;-82
2023/03/11 08:44:39;;;;;;;8.60;3.22;;;;;;;-0.01;100.00;101123.91;6246537;23;20463;-81
2023/03/11 08:47:04;;;;;;;5.05;2.80;;;;;;;0.18;100.00;101152.41;6246146;23;20386;-81
2023/03/11 08:49:30;;;;;;;10.48;3.15;;;;;;;0.22;100.00;101149.81;6245824;23;20006;-82
2023/03/11 08:51:55;;;;;;;7.05;2.25;;;;;;;0.29;98.77;101160.69;6245792;23;20038;-81
2023/03/11 08:54:21;;;;;;;8.88;2.70;;;;;;;0.18;99.91;101132.09;6245681;23;20011;-77
2023/03/11 08:56:49;;;;;;;8.30;2.60;;;;;;;0.45;99.00;101166.38;6245794;23;20000;-79
2023/03/11 08:59:14;;;;;;;4.72;1.90;;;;;;;0.51;98.51;101159.53;6217833;23;20079;-81
2023/03/11 09:01:41;;;;;;;7.32;2.35;;;;;;;0.46;95.87;101151.13;6245896;23;20059;-77
2023/03/11 09:04:07;;;;;;;6.85;2.33;;;;;;;0.62;95.59;101177.13;6245663;23;20012;-80
2023/03/11 09:06:32;;;;;;;6.47;2.45;;;;;;;0.69;94.40;101178.72;6245811;23;20030;-80
2023/03/11 09:08:58;;;;;;;10.38;2.30;;;;;;;0.55;93.46;101134.88;6245219;23;20422;-79
2023/03/11 09:11:23;;;;;;;4.45;2.55;;;;;;;0.68;94.08;101146.50;6245792;23;20004;-79
2023/03/11 09:13:49;;;;;;;8.00;2.35;;;;;;;0.70;93.47;101134.63;6243409;23;20110;-73
2023/03/11 09:16:17;;;;;;;5.72;1.88;;;;;;;0.91;90.30;101158.00;6246141;23;20418;-77
2023/03/11 09:18:42;;;;;;;3.45;1.58;;;;;;;1.00;91.16;101162.94;6218430;23;20000;-79
2023/03/11 09:21:09;;;;;;;5.75;1.80;;;;;;;1.16;91.08;101179.56;6245183;23;20393;-78
2023/03/11 09:23:34;;;;;;;7.95;2.17;;;;;;;1.22;89.24;101171.00;6245378;23;20011;-79
2023/03/11 09:25:59;;;;;;;7.90;1.85;;;;;;;1.26;85.62;101175.97;6245526;23;19996;-78
2023/03/11 09:28:25;;;;;;;7.35;1.73;;;;;;;1.28;84.01;101179.34;6245477;23;20015;-76
2023/03/11 09:30:50;;;;;;;4.80;1.85;;;;;;;1.26;85.59;101160.72;6245377;23;20054;-74
2023/03/11 09:33:16;;;;;;;7.15;1.52;;;;;;;1.46;83.75;101179.84;6245564;23;20027;-76
2023/03/11 09:35:41;;;;;;;4.90;1.70;;;;;;;1.29;83.06;101140.31;6245956;23;20008;-81
2023/03/11 09:38:07;;;;;;;11.48;2.45;;;;;;;1.69;83.28;101187.88;6245540;23;20011;-78
2023/03/11 09:40:58;;;;;;;6.55;1.83;;;;;;;1.85;83.15;101180.72;6245325;23;20000;-80
2023/03/11 09:43:37;;;;;;;4.03;1.48;;;;;;;2.03;83.00;101187.16;6245097;23;20430;-79
2023/03/11 09:46:40;;;;;;;7.43;1.60;;;;;;;2.19;81.61;101188.50;6245705;23;20445;-81
2023/03/11 09:49:43;;;;;;;5.07;1.63;;;;;;;2.37;82.51;101188.06;6245700;23;20073;-78
2023/03/11 09:52:11;;;;;;;3.33;1.13;;;;;;;2.57;78.25;101193.53;6245334;23;20032;-79
2023/03/11 09:54:41;;;;;;;5.72;1.60;;;;;;;2.65;79.93;101165.28;6244978;23;20080;-80
2023/03/11 09:57:13;;;;;;;2.80;1.10;;;;;;;2.61;75.99;101142.47;6245149;23;20000;-78
2023/03/11 09:59:41;;;;;;;4.10;0.90;;;;;;;2.81;72.52;101181.03;6245547;23;20004;-79
2023/03/11 10:02:15;;;;;;;1.65;0.90;;;;;;;2.79;73.15;101188.75;6245700;23;20330;-77
2023/03/11 10:05:07;;;;;;;3.67;1.17;;;;;;;2.80;76.40;101192.13;6245829;23;20000;-78
2023/03/11 10:07:38;;;;;;;7.28;1.23;;;;;;;2.83;71.88;101186.94;6245660;23;20000;-78
2023/03/11 10:10:05;;;;;;;5.55;1.50;;;;;;;2.83;74.44;101189.50;6245491;23;20000;-76
2023/03/11 10:13:02;;;;;;;2.80;1.17;;;;;;;2.79;73.68;101183.63;6245260;23;20010;-79
2023/03/11 10:15:47;;;;;;;3.30;1.08;;;;;;;2.76;76.22;101175.25;6245446;23;20030;-77
2023/03/11 10:18:52;;;;;;;2.67;0.95;;;;;;;2.73;73.97;101186.34;6245376;23;20011;-78
2023/03/11 10:21:38;;;;;;;8.45;1.33;;;;;;;2.72;73.77;101191.47;6245332;23;20001;-77
2023/03/11 10:24:36;;;;;;;3.95;1.20;;;;;;;2.75;75.53;101187.16;6218111;23;20011;-79
2023/03/11 10:27:12;;;;;;;6.70;1.73;;;;;;;2.91;71.42;101202.06;6247167;23;20008;-76
2023/03/11 10:30:03;;;;;;;5.95;1.17;;;;;;;3.07;71.03;101201.63;6247267;23;20004;-77
2023/03/11 10:32:36;;;;;;;3.17;1.00;;;;;;;3.32;70.86;101208.63;6184018;23;20012;-77
2023/03/11 10:35:15;;;;;;;5.88;1.30;;;;;;;3.37;69.17;101206.81;6183989;23;20017;-76
2023/03/11 10:37:47;;;;;;;4.55;1.15;;;;;;;3.48;69.11;101209.06;6184397;23;20012;-77
2023/03/11 10:40:23;;;;;;;5.25;1.50;;;;;;;3.62;69.14;101205.22;6184065;23;20554;-77
2023/03/11 10:42:51;;;;;;;3.55;1.17;;;;;;;3.77;67.42;101205.69;6183878;23;20024;-80
2023/03/11 10:45:19;;;;;;;4.43;1.30;;;;;;;4.00;69.51;101209.22;6184298;23;20008;-80
2023/03/11 10:47:45;;;;;;;3.38;1.05;;;;;;;4.13;66.99;101211.41;6184181;23;20008;-78
2023/03/11 10:50:18;;;;;;;6.05;1.52;;;;;;;4.30;69.72;101211.75;6184376;23;20012;-78
2023/03/11 10:53:04;;;;;;;8.82;1.73;;;;;;;4.49;67.87;101207.72;6184487;23;20009;-77
2023/03/11 10:55:30;;;;;;;5.60;1.90;;;;;;;4.63;64.46;101209.88;6183956;23;20040;-77
2023/03/11 10:58:12;;;;;;;6.15;1.33;;;;;;;4.84;68.31;101200.66;6184014;23;20347;-76
2023/03/11 11:00:38;;;;;;;4.60;1.20;;;;;;;4.77;66.31;101176.16;6184025;23;20087;-78
2023/03/11 11:03:05;;;;;;;4.43;1.13;;;;;;;5.02;63.73;101191.53;6183810;23;20095;-77
2023/03/11 11:05:32;;;;;;;6.05;1.77;;;;;;;5.24;64.16;101194.19;6184285;23;20028;-75
2023/03/11 11:08:07;;;;;;;4.40;1.02;;;;;;;5.29;62.14;101189.72;6183954;23;20009;-75
2023/03/11 11:10:35;;;;;;;11.05;1.52;;;;;;;5.01;59.22;101200.91;6246700;23;20004;-75
2023/03/11 11:13:11;;;;;;;4.10;1.27;;;;;;;4.95;61.19;101197.72;6246842;23;20000;-73
2023/03/11 11:15:40;;;;;;;4.20;1.15;;;;;;;4.82;61.81;101176.84;6246727;23;20000;-75
2023/03/11 11:18:15;;;;;;;8.65;2.15;;;;;;;5.07;63.55;101185.34;6246906;23;20841;-77
2023/03/11 11:20:55;;;;;;;6.38;1.52;;;;;;;5.37;64.94;101182.59;6246945;23;20004;-75
2023/03/11 11:23:29;;;;;;;7.78;1.30;;;;;;;5.61;60.49;101207.34;6247072;23;19996;-76
2023/03/11 11:25:58;;;;;;;4.95;1.73;;;;;;;5.56;60.47;101191.28;6246388;23;20410;-79